Time;durP1;ratioP1;P1;durP2;ratioP2;P2;SDS_P1;SDS_P2;PMS_P1;PMS_P2;Temp;Humidity;BMP_temperature;BMP_pressure;BME280_temperature;BME280_humidity;BME280_pressure;Samples;Min_cycle;Max_cycle;Signal;HPM_P1;HPM_P2
2023/04/24 00:01:59;;;;;;;10.90;6.40;;;;;;;11.88;92.05;98919.08;105898;1257;73289;-66
2023/04/24 00:04:48;;;;;;;12.00;6.80;;;;;;;11.87;92.11;98918.10;105654;1258;68605;-65
2023/04/24 00:07:36;;;;;;;12.30;6.90;;;;;;;11.85;92.26;98917.88;105915;1257;71399;-64
2023/04/24 00:10:25;;;;;;;12.40;7.20;;;;;;;11.85;92.52;98915.06;105863;1254;59218;-65
2023/04/24 00:13:13;;;;;;;11.40;6.90;;;;;;;11.86;92.47;98917.14;106097;1253;61812;-65
2023/04/24 00:16:01;;;;;;;11.70;6.80;;;;;;;11.87;92.59;98918.59;105991;1254;71102;-64
2023/04/24 00:18:49;;;;;;;11.20;6.80;;;;;;;11.89;92.58;98916.77;105943;1257;69497;-64
2023/04/24 00:21:37;;;;;;;11.80;6.70;;;;;;;11.92;92.68;98913.96;105820;1254;74177;-64
2023/04/24 00:24:26;;;;;;;10.40;6.40;;;;;;;11.94;92.45;98911.16;105897;1258;59238;-65
2023/04/24 00:27:13;;;;;;;12.00;6.50;;;;;;;11.95;92.50;98909.34;106199;1253;60099;-64
2023/04/24 00:30:02;;;;;;;16.00;10.20;;;;;;;11.94;92.44;98909.95;106126;1254;70478;-63
2023/04/24 00:32:51;;;;;;;21.20;14.20;;;;;;;11.84;92.04;98909.29;106072;1253;68285;-62
2023/04/24 00:35:39;;;;;;;21.80;14.20;;;;;;;11.71;92.34;98908.10;106210;1255;73555;-65
2023/04/24 00:38:28;;;;;;;22.40;14.60;;;;;;;11.58;92.09;98909.42;106108;1257;59914;-64
2023/04/24 00:41:16;;;;;;;25.80;16.30;;;;;;;11.46;91.93;98907.58;105893;1254;59295;-65
2023/04/24 00:44:04;;;;;;;23.70;15.00;;;;;;;11.28;91.80;98906.41;106133;1253;72724;-65
2023/04/24 00:46:54;;;;;;;25.10;15.70;;;;;;;11.10;92.42;98909.02;105817;1254;67278;-66
2023/04/24 00:49:43;;;;;;;27.50;17.00;;;;;;;10.95;92.63;98911.71;105989;1254;73339;-64
2023/04/24 00:52:32;;;;;;;27.80;17.00;;;;;;;10.86;93.31;98910.14;105573;1259;59322;-63
2023/04/24 00:55:21;;;;;;;27.70;16.30;;;;;;;10.72;94.41;98910.02;106144;1252;60620;-65
2023/04/24 00:58:09;;;;;;;22.80;13.70;;;;;;;10.61;94.43;98903.70;105975;1253;71437;-66
2023/04/24 01:00:58;;;;;;;24.50;14.80;;;;;;;10.57;94.96;98905.45;106086;1257;69434;-65
2023/04/24 01:03:48;;;;;;;25.70;13.90;;;;;;;10.54;94.86;98902.21;106057;1258;73365;-65
2023/04/24 01:06:40;;;;;;;24.10;14.90;;;;;;;10.51;95.54;98898.52;106102;1257;60900;-64
2023/04/24 01:09:29;;;;;;;25.10;14.60;;;;;;;10.47;95.51;98902.16;105811;1257;59286;-65
2023/04/24 01:12:19;;;;;;;29.40;16.90;;;;;;;10.43;95.52;98897.92;106094;1252;72625;-63
2023/04/24 01:15:09;;;;;;;26.30;14.60;;;;;;;10.37;95.55;98904.66;106157;1252;68703;-64
2023/04/24 01:17:57;;;;;;;23.50;13.50;;;;;;;10.35;96.42;98906.09;105829;1253;74346;-65
2023/04/24 01:20:46;;;;;;;24.90;14.10;;;;;;;10.34;96.36;98901.58;106091;1254;59816;-64
2023/04/24 01:23:35;;;;;;;27.50;16.00;;;;;;;10.30;96.76;98901.27;105739;1254;61045;-64
2023/04/24 01:26:25;;;;;;;26.40;14.90;;;;;;;10.30;97.12;98899.32;105937;1258;71645;-64
2023/04/24 01:29:13;;;;;;;29.70;15.60;;;;;;;10.30;96.92;98897.86;105914;1260;67284;-64
2023/04/24 01:32:05;;;;;;;29.70;16.50;;;;;;;10.33;97.29;98896.40;106098;1256;71884;-64
2023/04/24 01:34:55;;;;;;;31.10;17.00;;;;;;;10.31;97.31;98897.55;105858;1258;60209;-64
2023/04/24 01:37:44;;;;;;;28.90;16.30;;;;;;;10.35;97.26;98897.59;105795;1256;59788;-63
2023/04/24 01:40:32;;;;;;;31.70;18.00;;;;;;;10.38;97.33;98899.23;105957;1253;71735;-63
2023/04/24 01:43:21;;;;;;;29.60;16.30;;;;;;;10.40;97.44;98897.65;106153;1254;69343;-64
2023/04/24 01:46:10;;;;;;;33.70;17.60;;;;;;;10.40;97.59;98901.34;105893;1253;73555;-63
2023/04/24 01:49:01;;;;;;;31.30;15.30;;;;;;;10.36;97.32;98892.34;105812;1253;59251;-64
2023/04/24 01:51:49;;;;;;;31.80;16.90;;;;;;;10.34;97.48;98885.80;105741;1253;59877;-65
2023/04/24 01:54:37;;;;;;;29.60;16.00;;;;;;;10.35;97.87;98891.04;105982;1253;72632;-65
2023/04/24 01:57:26;;;;;;;35.90;19.30;;;;;;;10.34;97.67;98885.98;105933;1253;68480;-64
2023/04/24 02:00:14;;;;;;;46.00;18.80;;;;;;;10.27;97.91;98884.35;106033;1252;71996;-64
2023/04/24 02:03:02;;;;;;;33.10;17.50;;;;;;;10.20;98.38;98882.84;106045;1254;59340;-63
2023/04/24 02:05:50;;;;;;;36.10;19.00;;;;;;;10.19;98.86;98886.86;105920;1254;59697;-64
2023/04/24 02:08:39;;;;;;;37.10;18.80;;;;;;;10.16;98.88;98878.09;106030;1253;72836;-63
2023/04/24 02:11:27;;;;;;;36.30;17.90;;;;;;;10.16;99.79;98879.86;105915;1254;69509;-63
2023/04/24 02:14:15;;;;;;;35.40;19.30;;;;;;;10.17;99.59;98873.16;106061;1257;71865;-64
2023/04/24 02:17:04;;;;;;;36.80;18.50;;;;;;;10.15;99.71;98873.36;105910;1257;59553;-64
2023/04/24 02:19:52;;;;;;;34.30;17.80;;;;;;;10.10;99.96;98867.82;105562;1254;59700;-65
2023/04/24 02:22:41;;;;;;;35.80;18.30;;;;;;;10.04;100.00;98859.20;105980;1253;72174;-65
2023/04/24 02:25:29;;;;;;;38.60;19.50;;;;;;;9.94;100.00;98857.80;105568;1257;68029;-65
2023/04/24 02:28:17;;;;;;;38.70;21.40;;;;;;;9.88;100.00;98855.94;105910;1257;73118;-64
2023/04/24 02:31:06;;;;;;;39.10;19.60;;;;;;;9.84;100.00;98851.71;105881;1256;59938;-64
2023/04/24 02:33:54;;;;;;;38.70;19.30;;;;;;;9.82;100.00;98845.80;105826;1254;59811;-65
2023/04/24 02:36:43;;;;;;;42.50;21.50;;;;;;;9.84;100.00;98845.27;106227;1253;71575;-64
2023/04/24 02:39:31;;;;;;;37.10;19.50;;;;;;;9.86;100.00;98839.91;106152;1257;69151;-64
2023/04/24 02:42:19;;;;;;;30.70;15.20;;;;;;;9.90;100.00;98835.71;106175;1254;73449;-64
2023/04/24 02:45:08;;;;;;;34.80;16.90;;;;;;;9.93;100.00;98832.38;105837;1254;59245;-65
2023/04/24 02:47:56;;;;;;;39.70;18.00;;;;;;;9.93;100.00;98833.66;105747;1258;59853;-64
2023/04/24 02:50:44;;;;;;;33.00;17.90;;;;;;;9.84;100.00;98834.48;105903;1253;72917;-65
2023/04/24 02:53:33;;;;;;;37.80;19.10;;;;;;;9.76;100.00;98830.46;105851;1253;67484;-62
2023/04/24 02:56:21;;;;;;;41.10;19.50;;;;;;;9.69;100.00;98825.94;105932;1257;72131;-63
2023/04/24 02:59:10;;;;;;;37.90;19.60;;;;;;;9.62;100.00;98822.54;105563;1253;59297;-65
2023/04/24 03:01:59;;;;;;;39.20;20.00;;;;;;;9.55;100.00;98823.20;106031;1257;60006;-64
2023/04/24 03:04:48;;;;;;;40.10;20.60;;;;;;;9.53;100.00;98823.04;105758;1256;73446;-64
2023/04/24 03:07:36;;;;;;;39.80;18.60;;;;;;;9.54;100.00;98824.69;105989;1253;68502;-62
2023/04/24 03:10:25;;;;;;;38.30;18.80;;;;;;;9.56;100.00;98816.73;105952;1260;71787;-66
2023/04/24 03:13:13;;;;;;;42.00;19.80;;;;;;;9.60;100.00;98816.03;105898;1257;60180;-64
2023/04/24 03:16:02;;;;;;;44.00;18.60;;;;;;;9.63;100.00;98812.39;106106;1252;60878;-65
2023/04/24 03:18:50;;;;;;;41.10;18.50;;;;;;;9.65;100.00;98817.72;105897;1253;72767;-64
2023/04/24 03:21:40;;;;;;;39.20;19.80;;;;;;;9.65;100.00;98817.47;105629;1254;68255;-64
2023/04/24 03:24:30;;;;;;;41.80;19.30;;;;;;;9.67;100.00;98824.57;106052;1253;73241;-64
2023/04/24 03:27:18;;;;;;;42.20;19.40;;;;;;;9.66;100.00;98828.73;105815;1254;60243;-64
2023/04/24 03:30:27;;;;;;;39.70;19.10;;;;;;;9.68;100.00;98826.24;105798;1253;61065;-64
2023/04/24 03:33:18;;;;;;;39.80;19.00;;;;;;;9.70;100.00;98827.10;105833;1255;71923;-64
2023/04/24 03:36:14;;;;;;;36.70;16.70;;;;;;;9.72;100.00;98822.14;106022;1254;68226;-66
2023/04/24 03:39:04;;;;;;;35.80;16.70;;;;;;;9.70;100.00;98819.80;105861;1257;72124;-64
2023/04/24 03:41:54;;;;;;;34.50;17.10;;;;;;;9.67;100.00;98821.97;105668;1253;59347;-65
2023/04/24 03:44:48;;;;;;;33.70;17.20;;;;;;;9.60;100.00;98818.15;106068;1253;59942;-68
2023/04/24 03:47:36;;;;;;;39.20;18.10;;;;;;;9.54;100.00;98819.95;105925;1253;73010;-64
2023/04/24 03:50:26;;;;;;;38.60;17.60;;;;;;;9.52;100.00;98822.39;105879;1253;68407;-66
2023/04/24 03:53:15;;;;;;;38.70;17.30;;;;;;;9.52;100.00;98821.52;105730;1254;72134;-65
2023/04/24 03:56:04;;;;;;;34.90;16.30;;;;;;;9.53;100.00;98816.86;106011;1258;60449;-64
2023/04/24 03:58:52;;;;;;;39.60;18.00;;;;;;;9.53;100.00;98822.00;105834;1258;59765;-64
2023/04/24 04:01:41;;;;;;;42.30;18.00;;;;;;;9.53;100.00;98819.84;106157;1253;71652;-64
2023/04/24 04:04:34;;;;;;;42.10;18.30;;;;;;;9.52;100.00;98822.20;106117;1253;68880;-65
2023/04/24 04:07:22;;;;;;;39.00;17.20;;;;;;;9.53;100.00;98829.23;106759;1253;72661;-67
2023/04/24 04:10:11;;;;;;;39.90;17.00;;;;;;;9.58;100.00;98824.59;106450;1255;59308;-67
2023/04/24 04:12:59;;;;;;;30.90;14.60;;;;;;;9.58;100.00;98827.70;105947;1252;60955;-67
2023/04/24 04:15:47;;;;;;;33.70;15.30;;;;;;;9.54;100.00;98831.91;106874;1252;71712;-68
2023/04/24 04:18:36;;;;;;;35.40;15.80;;;;;;;9.52;100.00;98831.48;105854;1253;68206;-67
2023/04/24 04:21:26;;;;;;;28.00;12.70;;;;;;;9.51;100.00;98833.43;105772;1252;71531;-70
2023/04/24 04:24:22;;;;;;;33.40;14.90;;;;;;;9.52;100.00;98835.30;106122;1253;59374;-70
2023/04/24 04:27:10;;;;;;;30.20;14.60;;;;;;;9.55;100.00;98844.45;105740;1253;59815;-67
2023/04/24 04:30:10;;;;;;;28.60;14.20;;;;;;;9.58;100.00;98845.98;105833;1252;72620;-68
2023/04/24 04:33:06;;;;;;;25.90;13.00;;;;;;;9.60;100.00;98838.19;106033;1252;68343;-67
2023/04/24 04:35:56;;;;;;;25.90;13.30;;;;;;;9.64;100.00;98840.81;105852;1253;73191;-67
2023/04/24 04:38:48;;;;;;;27.80;12.50;;;;;;;9.69;100.00;98838.00;105595;1253;59204;-66
2023/04/24 04:42:15;;;;;;;21.00;10.40;;;;;;;9.78;100.00;98833.62;106150;1253;60741;-67
2023/04/24 04:45:04;;;;;;;22.30;10.50;;;;;;;9.82;100.00;98831.63;105978;1253;72169;-66
2023/04/24 04:48:03;;;;;;;23.60;11.30;;;;;;;9.86;100.00;98830.20;106479;1257;67942;-66
2023/04/24 04:50:51;;;;;;;23.40;10.60;;;;;;;9.90;100.00;98832.16;106125;1259;73396;-68
2023/04/24 04:53:40;;;;;;;22.50;10.60;;;;;;;9.92;100.00;98830.39;106133;1256;59149;-67
2023/04/24 04:56:28;;;;;;;23.00;11.00;;;;;;;9.95;100.00;98826.89;106621;1255;59525;-67
2023/04/24 04:59:18;;;;;;;22.90;10.60;;;;;;;9.96;100.00;98824.34;106505;1252;72214;-72
2023/04/24 05:02:08;;;;;;;24.30;11.20;;;;;;;9.96;100.00;98827.89;106144;1257;67992;-71
2023/04/24 05:04:56;;;;;;;26.00;11.40;;;;;;;9.94;100.00;98823.81;106427;1252;73081;-72
2023/04/24 05:07:44;;;;;;;22.60;10.60;;;;;;;9.93;100.00;98824.77;106877;1258;59346;-71
2023/04/24 05:10:32;;;;;;;22.70;11.00;;;;;;;9.95;100.00;98820.71;105947;1252;59338;-70
2023/04/24 05:13:21;;;;;;;22.00;10.40;;;;;;;10.00;100.00;98821.08;106242;1252;70905;-73
2023/04/24 05:16:27;;;;;;;22.10;11.10;;;;;;;10.06;100.00;98815.98;106003;1254;68357;-71
2023/04/24 05:19:15;;;;;;;21.30;10.90;;;;;;;10.10;100.00;98812.39;106253;1253;71227;-71
2023/04/24 05:22:06;;;;;;;25.70;11.70;;;;;;;10.15;100.00;98808.91;106563;1256;59463;-70
2023/04/24 05:24:57;;;;;;;22.10;10.90;;;;;;;10.26;100.00;98812.08;105999;1252;60189;-71
2023/04/24 05:28:08;;;;;;;17.50;9.40;;;;;;;10.41;100.00;98820.83;106312;1253;72464;-72
2023/04/24 05:30:59;;;;;;;23.90;11.40;;;;;;;10.56;100.00;98814.58;105760;1252;67395;-72
2023/04/24 05:33:47;;;;;;;19.10;9.50;;;;;;;10.73;99.27;98811.96;106176;1257;71647;-70
2023/04/24 05:36:36;;;;;;;22.40;10.80;;;;;;;10.99;97.73;98804.27;106122;1255;59910;-71
2023/04/24 05:39:24;;;;;;;21.90;11.90;;;;;;;11.23;96.65;98803.23;106320;1254;59334;-73
2023/04/24 05:42:13;;;;;;;22.00;11.60;;;;;;;11.33;95.09;98808.40;107551;1252;71574;-72
2023/04/24 05:45:05;;;;;;;23.70;12.30;;;;;;;11.30;93.91;98808.41;107808;1255;67796;-67
2023/04/24 05:47:53;;;;;;;19.70;10.10;;;;;;;11.22;93.57;98810.52;107867;1254;73446;-70
2023/04/24 05:50:42;;;;;;;21.40;10.90;;;;;;;11.17;92.87;98814.77;106413;1253;59297;-72
2023/04/24 05:53:31;;;;;;;20.50;9.90;;;;;;;11.12;92.94;98815.80;107784;1252;60247;-72
2023/04/24 05:56:21;;;;;;;19.10;9.50;;;;;;;11.09;92.61;98811.84;106637;1256;70011;-71
2023/04/24 05:59:09;;;;;;;17.40;9.30;;;;;;;11.07;92.45;98808.52;106321;1254;66526;-71
2023/04/24 06:01:58;;;;;;;19.90;9.10;;;;;;;11.10;92.02;98801.97;105889;1253;70665;-71
2023/04/24 06:04:46;;;;;;;19.30;10.70;;;;;;;11.11;91.58;98800.83;107016;1256;59292;-70
2023/04/24 06:07:34;;;;;;;20.50;11.00;;;;;;;11.09;91.67;98799.42;106009;1254;59333;-70
2023/04/24 06:10:24;;;;;;;21.20;10.90;;;;;;;11.08;92.09;98798.11;106396;1257;72047;-71
2023/04/24 06:13:14;;;;;;;22.70;10.50;;;;;;;11.11;92.37;98795.33;105993;1253;67751;-71
2023/04/24 06:16:09;;;;;;;19.80;10.70;;;;;;;11.12;91.46;98797.33;106018;1257;72726;-71
2023/04/24 06:19:00;;;;;;;20.40;11.00;;;;;;;11.11;91.31;98797.48;107511;1253;60076;-73
2023/04/24 06:21:48;;;;;;;25.20;11.40;;;;;;;11.13;91.70;98797.92;105877;1257;60323;-71
2023/04/24 06:24:37;;;;;;;21.40;10.20;;;;;;;11.17;91.45;98801.65;105939;1261;71147;-73
2023/04/24 06:27:25;;;;;;;21.50;9.10;;;;;;;11.15;90.61;98800.20;106483;1253;66190;-71
2023/04/24 06:30:14;;;;;;;18.20;8.70;;;;;;;11.15;90.33;98798.48;106272;1258;72534;-70
2023/04/24 06:33:02;;;;;;;17.30;9.10;;;;;;;11.10;89.12;98801.66;106205;1255;59222;-71
2023/04/24 06:36:06;;;;;;;16.50;7.80;;;;;;;11.05;88.85;98798.75;106978;1252;59303;-72
2023/04/24 06:38:54;;;;;;;14.70;7.40;;;;;;;11.05;89.05;98795.20;106093;1255;72278;-72
2023/04/24 06:41:42;;;;;;;20.90;8.80;;;;;;;11.05;88.45;98795.34;106068;1253;67652;-75
2023/04/24 06:44:41;;;;;;;17.00;8.40;;;;;;;11.05;87.73;98795.41;106150;1253;72749;-72
2023/04/24 06:47:30;;;;;;;19.20;9.90;;;;;;;11.05;87.62;98792.03;106067;1253;59162;-73
2023/04/24 06:50:19;;;;;;;18.00;8.50;;;;;;;11.06;87.60;98796.90;105783;1255;59536;-73
2023/04/24 06:53:07;;;;;;;18.80;8.50;;;;;;;11.09;87.68;98790.73;105951;1255;72002;-74
2023/04/24 06:55:55;;;;;;;17.70;8.20;;;;;;;11.14;87.07;98786.13;106037;1256;66502;-74
2023/04/24 06:58:45;;;;;;;17.90;8.70;;;;;;;11.13;85.76;98786.41;105643;1256;72627;-73
2023/04/24 07:01:33;;;;;;;15.10;7.80;;;;;;;11.14;85.97;98788.61;106231;1255;60342;-73
2023/04/24 07:04:22;;;;;;;13.90;6.90;;;;;;;11.10;85.23;98790.30;105667;1257;59665;-74
2023/04/24 07:07:14;;;;;;;15.60;7.30;;;;;;;11.05;84.85;98785.41;106198;1255;70748;-72
2023/04/24 07:10:03;;;;;;;11.50;5.30;;;;;;;11.02;84.87;98779.39;105705;1256;65872;-65
2023/04/24 07:12:53;;;;;;;14.60;6.30;;;;;;;10.91;83.98;98781.39;105834;1256;70813;-67
2023/04/24 07:15:42;;;;;;;12.50;5.80;;;;;;;10.79;84.51;98776.50;106231;1257;59850;-67
2023/04/24 07:18:30;;;;;;;15.40;6.50;;;;;;;10.74;85.26;98777.17;105438;1259;61336;-66
2023/04/24 07:21:18;;;;;;;14.30;6.30;;;;;;;10.75;85.27;98768.91;105672;1252;73153;-65
2023/04/24 07:24:10;;;;;;;12.10;5.70;;;;;;;10.81;84.89;98761.20;107090;1257;67829;-66
2023/04/24 07:27:00;;;;;;;12.60;5.70;;;;;;;10.85;84.24;98763.82;105780;1252;71836;-66
2023/04/24 07:29:48;;;;;;;10.80;4.90;;;;;;;10.86;83.68;98768.31;105762;1257;59369;-66
2023/04/24 07:32:37;;;;;;;12.80;5.50;;;;;;;10.85;83.44;98770.20;105814;1255;61941;-66
2023/04/24 07:35:27;;;;;;;10.40;4.70;;;;;;;10.78;83.74;98770.00;105619;1253;72715;-67
2023/04/24 07:38:21;;;;;;;9.90;5.00;;;;;;;10.76;84.29;98770.80;105965;1252;67899;-67
2023/04/24 07:41:10;;;;;;;9.40;5.10;;;;;;;10.76;84.85;98773.98;105730;1252;72832;-67
2023/04/24 07:43:58;;;;;;;9.20;4.90;;;;;;;10.76;85.10;98768.09;105821;1258;61021;-67
2023/04/24 07:46:47;;;;;;;9.80;5.50;;;;;;;10.78;85.65;98761.35;106183;1252;60344;-66
2023/04/24 07:49:35;;;;;;;10.00;4.90;;;;;;;10.83;86.62;98755.48;105698;1252;73730;-65
2023/04/24 07:52:24;;;;;;;9.30;5.00;;;;;;;10.89;86.97;98757.95;105803;1254;68459;-66
2023/04/24 07:55:13;;;;;;;11.00;6.00;;;;;;;10.93;87.63;98753.46;105929;1257;73616;-66
2023/04/24 07:58:01;;;;;;;10.50;5.90;;;;;;;10.97;88.53;98757.50;105505;1256;59415;-66
2023/04/24 08:00:50;;;;;;;11.00;6.80;;;;;;;11.05;89.10;98748.64;105129;1261;60285;-66
2023/04/24 08:03:40;;;;;;;12.70;5.80;;;;;;;11.14;88.54;98746.58;105723;1258;72335;-65
2023/04/24 08:06:32;;;;;;;10.80;5.90;;;;;;;11.24;88.83;98742.89;105637;1256;67293;-66
2023/04/24 08:09:21;;;;;;;15.70;6.60;;;;;;;11.43;89.10;98740.78;105556;1259;72152;-66
2023/04/24 08:12:09;;;;;;;13.60;7.70;;;;;;;11.64;88.86;98738.48;105383;1260;59448;-66
2023/04/24 08:14:57;;;;;;;15.20;6.90;;;;;;;11.86;88.72;98740.33;105448;1259;59511;-66
2023/04/24 08:17:46;;;;;;;18.50;7.30;;;;;;;12.06;87.43;98744.62;105298;1259;73614;-66
2023/04/24 08:20:36;;;;;;;11.40;6.50;;;;;;;12.36;86.92;98750.44;106092;1262;66451;-66
2023/04/24 08:23:25;;;;;;;12.50;6.80;;;;;;;12.66;85.69;98753.23;105494;1259;72377;-66
2023/04/24 08:26:15;;;;;;;13.10;6.00;;;;;;;12.92;84.83;98754.39;105544;1259;59171;-65
2023/04/24 08:29:06;;;;;;;12.20;7.20;;;;;;;13.10;84.12;98755.27;105310;1259;59495;-66
2023/04/24 08:31:58;;;;;;;15.10;8.30;;;;;;;13.18;83.35;98747.30;105000;1264;72406;-66
2023/04/24 08:34:47;;;;;;;14.80;8.80;;;;;;;13.21;83.17;98740.52;105336;1263;68716;-66
2023/04/24 08:37:38;;;;;;;13.80;8.20;;;;;;;13.18;82.94;98736.93;105495;1257;70458;-66
2023/04/24 08:40:29;;;;;;;14.50;8.70;;;;;;;13.11;82.76;98733.12;105470;1261;59311;-67
2023/04/24 08:43:20;;;;;;;14.70;8.90;;;;;;;13.06;83.38;98725.58;105863;1253;60598;-66
2023/04/24 08:46:09;;;;;;;15.60;8.70;;;;;;;13.06;83.48;98723.20;106097;1256;71470;-67
2023/04/24 08:48:59;;;;;;;14.20;7.70;;;;;;;13.07;84.09;98727.52;105634;1258;69443;-67
2023/04/24 08:51:49;;;;;;;15.40;8.90;;;;;;;13.03;83.34;98728.87;105840;1257;74453;-66
2023/04/24 08:54:40;;;;;;;16.40;9.50;;;;;;;12.96;83.98;98733.27;105656;1258;59272;-66
2023/04/24 08:57:30;;;;;;;15.80;8.90;;;;;;;12.92;84.06;98739.25;105703;1252;59724;-65
2023/04/24 09:00:21;;;;;;;15.50;9.20;;;;;;;13.02;84.28;98738.73;105729;1255;73181;-66
2023/04/24 09:03:10;;;;;;;19.60;10.90;;;;;;;13.19;84.07;98734.92;105726;1258;67269;-67
2023/04/24 09:06:00;;;;;;;21.60;9.80;;;;;;;13.36;83.87;98734.72;105827;1252;71559;-66
2023/04/24 09:08:52;;;;;;;19.20;10.20;;;;;;;13.53;83.43;98730.31;105816;1252;59375;-68
2023/04/24 09:11:40;;;;;;;19.30;11.00;;;;;;;13.76;83.16;98721.94;105645;1258;60069;-66
2023/04/24 09:14:31;;;;;;;18.40;10.00;;;;;;;14.26;82.09;98719.76;105909;1253;71733;-66
2023/04/24 09:17:19;;;;;;;15.80;8.90;;;;;;;15.54;80.08;98714.92;105920;1253;67363;-66
2023/04/24 09:20:08;;;;;;;18.80;10.90;;;;;;;17.00;72.38;98712.84;106168;1252;74165;-66
2023/04/24 09:22:58;;;;;;;15.60;9.30;;;;;;;17.95;68.04;98712.38;105934;1252;59233;-66
2023/04/24 09:25:54;;;;;;;22.20;10.00;;;;;;;19.08;64.51;98708.89;106685;1252;61242;-66
2023/04/24 09:28:43;;;;;;;15.90;8.40;;;;;;;20.49;59.49;98705.84;106266;1252;71271;-67
2023/04/24 09:31:32;;;;;;;13.70;7.90;;;;;;;21.81;53.93;98695.33;106746;1258;66603;-67
2023/04/24 09:34:23;;;;;;;14.00;7.90;;;;;;;23.24;50.14;98694.64;106172;1253;73577;-69
2023/04/24 09:37:15;;;;;;;13.80;8.10;;;;;;;24.69;46.49;98691.56;106096;1253;59308;-68
2023/04/24 09:40:19;;;;;;;13.90;7.10;;;;;;;25.71;43.31;98690.07;105900;1252;60707;-67
2023/04/24 09:43:11;;;;;;;21.50;8.40;;;;;;;25.64;42.10;98686.77;105980;1252;73031;-65
2023/04/24 09:46:09;;;;;;;17.70;7.80;;;;;;;24.94;42.90;98684.02;106119;1258;67860;-64
2023/04/24 09:48:57;;;;;;;15.60;8.00;;;;;;;24.04;43.62;98679.90;105863;1252;72126;-66
2023/04/24 09:51:45;;;;;;;16.90;8.80;;;;;;;23.16;44.84;98679.69;106077;1257;59256;-69
2023/04/24 09:54:36;;;;;;;14.80;8.20;;;;;;;22.41;46.55;98681.40;105859;1258;59367;-75
2023/04/24 09:57:24;;;;;;;16.40;8.80;;;;;;;22.20;47.46;98676.36;106113;1252;70825;-75
2023/04/24 10:00:17;;;;;;;14.60;8.90;;;;;;;22.63;46.92;98671.16;105794;1257;66338;-74
2023/04/24 10:03:05;;;;;;;14.30;8.70;;;;;;;23.88;45.53;98664.77;107586;1252;73414;-76
2023/04/24 10:05:55;;;;;;;14.90;8.80;;;;;;;25.09;42.61;98659.70;106714;1252;59242;-76
2023/04/24 10:08:43;;;;;;;14.50;8.00;;;;;;;26.06;40.27;98649.73;105974;1252;60035;-76
2023/04/24 10:11:34;;;;;;;15.70;8.60;;;;;;;26.93;37.76;98651.98;106264;1252;71501;-76
2023/04/24 10:14:25;;;;;;;16.20;8.90;;;;;;;27.53;36.41;98652.14;106215;1252;67695;-75
2023/04/24 10:17:14;;;;;;;12.80;7.00;;;;;;;27.89;35.18;98641.63;105964;1261;72824;-75
2023/04/24 10:20:02;;;;;;;12.10;7.60;;;;;;;28.51;34.38;98644.22;106215;1258;59232;-74
2023/04/24 10:22:54;;;;;;;11.90;7.60;;;;;;;29.12;33.06;98644.30;106134;1258;59297;-73
2023/04/24 10:25:42;;;;;;;12.10;8.10;;;;;;;28.96;31.76;98641.57;106163;1258;71237;-76
2023/04/24 10:28:32;;;;;;;13.00;8.10;;;;;;;28.79;31.66;98646.23;105696;1253;67902;-75
2023/04/24 10:31:21;;;;;;;13.00;7.60;;;;;;;28.50;31.88;98649.63;105949;1258;73014;-74
2023/04/24 10:34:10;;;;;;;13.20;8.10;;;;;;;28.50;32.47;98642.68;106335;1253;59350;-75
2023/04/24 10:36:58;;;;;;;14.00;7.90;;;;;;;28.50;32.01;98640.11;106039;1253;60415;-75
2023/04/24 10:39:51;;;;;;;13.50;8.60;;;;;;;28.44;32.08;98634.35;106190;1258;71201;-77
2023/04/24 10:42:42;;;;;;;10.80;7.30;;;;;;;28.13;32.46;98626.80;105991;1256;67978;-76
2023/04/24 10:45:30;;;;;;;13.40;8.70;;;;;;;28.43;31.65;98634.35;106012;1253;71541;-77
2023/04/24 10:48:26;;;;;;;13.30;8.80;;;;;;;28.10;30.96;98637.12;105705;1253;59331;-76
2023/04/24 10:51:15;;;;;;;13.30;8.50;;;;;;;28.08;31.61;98631.54;106000;1253;59727;-75
2023/04/24 10:54:40;;;;;;;13.20;8.60;;;;;;;27.76;31.62;98634.86;105939;1252;72119;-78
2023/04/24 10:57:30;;;;;;;12.30;8.30;;;;;;;27.37;32.74;98624.89;106168;1253;66002;-75
2023/04/24 11:00:21;;;;;;;15.50;9.50;;;;;;;25.96;34.77;98627.63;105786;1253;71200;-76
2023/04/24 11:03:30;;;;;;;14.30;8.40;;;;;;;24.82;36.22;98627.96;106191;1253;59382;-75
2023/04/24 11:06:31;;;;;;;15.30;9.80;;;;;;;23.86;38.32;98622.79;106190;1256;59313;-75
2023/04/24 11:09:21;;;;;;;15.00;8.90;;;;;;;23.27;39.77;98621.98;105984;1253;69877;-73
2023/04/24 11:12:12;;;;;;;14.00;8.70;;;;;;;22.91;40.76;98618.86;105635;1253;67936;-75
2023/04/24 11:15:02;;;;;;;13.70;9.00;;;;;;;22.69;41.98;98620.67;106957;1259;70726;-74
2023/04/24 11:17:56;;;;;;;14.70;10.10;;;;;;;22.82;41.76;98620.44;106214;1253;59256;-74
2023/04/24 11:20:46;;;;;;;16.00;10.00;;;;;;;23.39;40.92;98616.12;106115;1253;59276;-75
2023/04/24 11:23:37;;;;;;;14.90;10.60;;;;;;;23.54;40.42;98622.84;105947;1253;70865;-75
2023/04/24 11:26:32;;;;;;;15.10;9.60;;;;;;;23.66;40.17;98609.48;106340;1252;67459;-72
2023/04/24 11:29:21;;;;;;;14.20;9.30;;;;;;;24.02;39.54;98613.62;106924;1252;72652;-74
2023/04/24 11:32:30;;;;;;;13.70;8.40;;;;;;;24.25;39.06;98609.64;105955;1253;59675;-74
2023/04/24 11:35:24;;;;;;;14.20;8.60;;;;;;;24.18;38.38;98615.77;106507;1252;60341;-73
2023/04/24 11:38:14;;;;;;;12.60;8.60;;;;;;;24.08;38.74;98613.86;106195;1257;72057;-74
2023/04/24 11:41:13;;;;;;;12.20;8.00;;;;;;;24.35;38.83;98609.45;106137;1258;67642;-74
2023/04/24 11:44:05;;;;;;;15.00;9.20;;;;;;;24.26;38.90;98613.84;106070;1252;72674;-75
2023/04/24 11:46:55;;;;;;;13.80;8.70;;;;;;;24.08;39.26;98603.85;106130;1252;59444;-75
2023/04/24 11:49:44;;;;;;;14.40;9.30;;;;;;;23.72;39.81;98614.59;106304;1256;59328;-74
2023/04/24 11:52:36;;;;;;;15.10;9.00;;;;;;;23.36;40.91;98606.95;105817;1258;72276;-73
2023/04/24 11:55:28;;;;;;;13.60;9.10;;;;;;;23.21;41.43;98599.08;106573;1252;66711;-75
2023/04/24 11:58:21;;;;;;;20.80;10.60;;;;;;;22.92;42.08;98602.17;105912;1257;72781;-75
2023/04/24 12:01:09;;;;;;;16.50;10.70;;;;;;;22.65;42.79;98602.13;106278;1257;59244;-75
2023/04/24 12:04:00;;;;;;;15.60;9.70;;;;;;;22.21;44.06;98599.48;106552;1254;59350;-74
2023/04/24 12:07:10;;;;;;;16.10;10.60;;;;;;;21.93;45.10;98593.58;105763;1257;71791;-74
2023/04/24 12:09:59;;;;;;;14.80;9.30;;;;;;;21.74;45.50;98592.48;106089;1258;67987;-75
2023/04/24 12:12:50;;;;;;;14.60;9.60;;;;;;;21.36;46.14;98582.45;105688;1255;70656;-74
2023/04/24 12:15:40;;;;;;;14.90;9.60;;;;;;;21.37;46.61;98581.17;106739;1254;59337;-73
2023/04/24 12:18:29;;;;;;;12.50;8.10;;;;;;;21.23;47.04;98572.54;107834;1253;59152;-74
2023/04/24 12:21:20;;;;;;;12.40;7.40;;;;;;;21.12;46.56;98573.45;107199;1253;72197;-75
2023/04/24 12:24:10;;;;;;;10.60;6.00;;;;;;;20.69;45.69;98567.48;105933;1253;70265;-67
2023/04/24 12:27:01;;;;;;;12.20;5.90;;;;;;;20.40;45.46;98566.25;105812;1266;73317;-67
2023/04/24 12:29:57;;;;;;;12.30;6.40;;;;;;;20.27;46.13;98563.96;105521;1261;59659;-66
2023/04/24 12:32:48;;;;;;;11.00;6.00;;;;;;;20.11;45.03;98564.00;106053;1255;60836;-68
2023/04/24 12:35:40;;;;;;;10.40;5.20;;;;;;;19.85;45.17;98562.69;105812;1259;72376;-68
2023/04/24 12:38:30;;;;;;;9.30;4.90;;;;;;;19.68;45.08;98559.35;105576;1255;66216;-67
2023/04/24 12:41:20;;;;;;;8.80;4.90;;;;;;;19.58;44.99;98555.16;105907;1255;74255;-69
2023/04/24 12:44:12;;;;;;;11.10;5.10;;;;;;;19.53;45.22;98546.89;105600;1260;59241;-68
2023/04/24 12:47:07;;;;;;;8.20;4.30;;;;;;;19.47;45.40;98546.66;105791;1260;59771;-68
2023/04/24 12:49:58;;;;;;;10.30;5.10;;;;;;;19.46;45.87;98539.03;105855;1256;71990;-67
2023/04/24 12:52:47;;;;;;;10.50;5.00;;;;;;;19.68;45.52;98532.77;105937;1255;66422;-71
2023/04/24 12:55:37;;;;;;;10.90;4.40;;;;;;;19.99;44.60;98530.10;105992;1256;73065;-68
2023/04/24 12:58:34;;;;;;;9.80;4.70;;;;;;;20.13;43.77;98524.96;106007;1261;59507;-69
2023/04/24 13:01:22;;;;;;;14.20;4.50;;;;;;;20.26;43.38;98527.98;106058;1261;61138;-67